sensor_id;sensor_type;location;lat;lon;timestamp;P1;durP1;ratioP1;P2;durP2;ratioP2
12429;SDS011;6279;42.192;24.326;2023-04-30T12:15:59;1.90;;;1.50;;
12429;SDS011;6279;42.192;24.326;2023-04-30T12:18:25;4.20;;;1.40;;
12429;SDS011;6279;42.192;24.326;2023-04-30T12:20:51;5.07;;;1.77;;
12429;SDS011;6279;42.192;24.326;2023-04-30T12:23:18;2.03;;;1.40;;
12429;SDS011;6279;42.192;24.326;2023-04-30T12:25:43;2.15;;;1.70;;
12429;SDS011;6279;42.192;24.326;2023-04-30T12:28:09;1.60;;;1.50;;
12429;SDS011;6279;42.192;24.326;2023-04-30T12:30:35;1.75;;;1.65;;
12429;SDS011;6279;42.192;24.326;2023-04-30T12:33:01;5.28;;;1.50;;
12429;SDS011;6279;42.192;24.326;2023-04-30T12:35:28;1.92;;;1.50;;
12429;SDS011;6279;42.192;24.326;2023-04-30T12:38:02;3.97;;;1.40;;
12429;SDS011;6279;42.192;24.326;2023-04-30T12:40:29;1.70;;;1.60;;
12429;SDS011;6279;42.192;24.326;2023-04-30T12:43:01;1.55;;;1.45;;
12429;SDS011;6279;42.192;24.326;2023-04-30T12:48:09;2.00;;;1.13;;
12429;SDS011;6279;42.192;24.326;2023-04-30T12:50:35;2.38;;;1.58;;
12429;SDS011;6279;42.192;24.326;2023-04-30T12:53:02;2.60;;;1.10;;
12429;SDS011;6279;42.192;24.326;2023-04-30T12:55:28;1.60;;;1.40;;
12429;SDS011;6279;42.192;24.326;2023-04-30T12:58:01;1.50;;;1.40;;
12429;SDS011;6279;42.192;24.326;2023-04-30T13:00:29;3.53;;;1.67;;
12429;SDS011;6279;42.192;24.326;2023-04-30T13:03:06;1.60;;;1.40;;
12429;SDS011;6279;42.192;24.326;2023-04-30T13:05:32;2.07;;;1.70;;
12429;SDS011;6279;42.192;24.326;2023-04-30T13:08:00;2.60;;;2.20;;
12429;SDS011;6279;42.192;24.326;2023-04-30T13:10:26;1.93;;;1.60;;
12429;SDS011;6279;42.192;24.326;2023-04-30T13:12:52;3.47;;;1.80;;
12429;SDS011;6279;42.192;24.326;2023-04-30T13:15:18;4.87;;;1.90;;
12429;SDS011;6279;42.192;24.326;2023-04-30T13:17:43;3.87;;;1.70;;
12429;SDS011;6279;42.192;24.326;2023-04-30T13:20:09;2.50;;;2.00;;
12429;SDS011;6279;42.192;24.326;2023-04-30T13:22:37;2.03;;;1.77;;
12429;SDS011;6279;42.192;24.326;2023-04-30T13:25:03;3.60;;;1.90;;
12429;SDS011;6279;42.192;24.326;2023-04-30T13:27:29;2.30;;;2.10;;
12429;SDS011;6279;42.192;24.326;2023-04-30T13:29:54;2.20;;;1.83;;
12429;SDS011;6279;42.192;24.326;2023-04-30T13:32:19;2.40;;;2.00;;
12429;SDS011;6279;42.192;24.326;2023-04-30T13:34:45;5.77;;;4.50;;
12429;SDS011;6279;42.192;24.326;2023-04-30T13:37:10;3.40;;;3.10;;
12429;SDS011;6279;42.192;24.326;2023-04-30T13:39:36;5.20;;;2.30;;
12429;SDS011;6279;42.192;24.326;2023-04-30T13:42:01;2.53;;;2.03;;
12429;SDS011;6279;42.192;24.326;2023-04-30T13:44:28;3.47;;;2.23;;
12429;SDS011;6279;42.192;24.326;2023-04-30T13:46:56;2.10;;;1.90;;
12429;SDS011;6279;42.192;24.326;2023-04-30T13:49:22;1.97;;;1.87;;
12429;SDS011;6279;42.192;24.326;2023-04-30T13:51:47;3.43;;;1.43;;
12429;SDS011;6279;42.192;24.326;2023-04-30T13:54:13;2.03;;;1.70;;
12429;SDS011;6279;42.192;24.326;2023-04-30T13:56:38;2.00;;;1.50;;
12429;SDS011;6279;42.192;24.326;2023-04-30T13:59:03;2.00;;;1.77;;
12429;SDS011;6279;42.192;24.326;2023-04-30T14:01:29;3.10;;;1.70;;
12429;SDS011;6279;42.192;24.326;2023-04-30T14:03:56;1.70;;;1.60;;
12429;SDS011;6279;42.192;24.326;2023-04-30T14:06:22;1.53;;;1.20;;
12429;SDS011;6279;42.192;24.326;2023-04-30T14:08:47;2.87;;;1.30;;
12429;SDS011;6279;42.192;24.326;2023-04-30T14:11:13;1.40;;;1.30;;
12429;SDS011;6279;42.192;24.326;2023-04-30T14:13:38;1.60;;;1.30;;
12429;SDS011;6279;42.192;24.326;2023-04-30T14:16:03;2.00;;;1.60;;
12429;SDS011;6279;42.192;24.326;2023-04-30T14:18:29;2.10;;;1.60;;
12429;SDS011;6279;42.192;24.326;2023-04-30T14:20:54;3.80;;;2.13;;
12429;SDS011;6279;42.192;24.326;2023-04-30T14:23:20;4.10;;;2.53;;
12429;SDS011;6279;42.192;24.326;2023-04-30T14:25:45;1.77;;;1.60;;
12429;SDS011;6279;42.192;24.326;2023-04-30T14:28:11;1.60;;;1.40;;
12429;SDS011;6279;42.192;24.326;2023-04-30T14:30:37;1.50;;;1.40;;
12429;SDS011;6279;42.192;24.326;2023-04-30T14:33:02;6.10;;;4.90;;
12429;SDS011;6279;42.192;24.326;2023-04-30T14:35:27;2.87;;;2.30;;
12429;SDS011;6279;42.192;24.326;2023-04-30T14:37:53;2.60;;;1.67;;
12429;SDS011;6279;42.192;24.326;2023-04-30T14:40:18;4.07;;;2.23;;
12429;SDS011;6279;42.192;24.326;2023-04-30T14:42:44;2.10;;;1.70;;
12429;SDS011;6279;42.192;24.326;2023-04-30T14:45:09;1.90;;;1.40;;
12429;SDS011;6279;42.192;24.326;2023-04-30T14:47:35;2.40;;;1.90;;
12429;SDS011;6279;42.192;24.326;2023-04-30T14:50:00;3.03;;;2.10;;
12429;SDS011;6279;42.192;24.326;2023-04-30T14:52:26;2.77;;;1.87;;
12429;SDS011;6279;42.192;24.326;2023-04-30T14:54:52;3.27;;;1.90;;
12429;SDS011;6279;42.192;24.326;2023-04-30T14:57:17;2.70;;;1.67;;
12429;SDS011;6279;42.192;24.326;2023-04-30T14:59:43;2.23;;;1.40;;
12429;SDS011;6279;42.192;24.326;2023-04-30T15:02:08;3.50;;;2.30;;
12429;SDS011;6279;42.192;24.326;2023-04-30T15:04:35;2.90;;;2.30;;
12429;SDS011;6279;42.192;24.326;2023-04-30T15:07:00;1.47;;;1.30;;
12429;SDS011;6279;42.192;24.326;2023-04-30T15:09:26;1.50;;;1.40;;
12429;SDS011;6279;42.192;24.326;2023-04-30T15:11:51;1.90;;;1.70;;
12429;SDS011;6279;42.192;24.326;2023-04-30T15:14:17;1.60;;;1.50;;
12429;SDS011;6279;42.192;24.326;2023-04-30T15:16:42;1.50;;;1.40;;
12429;SDS011;6279;42.192;24.326;2023-04-30T15:19:08;3.30;;;1.70;;
12429;SDS011;6279;42.192;24.326;2023-04-30T15:21:34;2.83;;;1.43;;
12429;SDS011;6279;42.192;24.326;2023-04-30T15:24:00;2.00;;;1.40;;
12429;SDS011;6279;42.192;24.326;2023-04-30T15:26:26;2.27;;;1.27;;
12429;SDS011;6279;42.192;24.326;2023-04-30T15:28:53;1.60;;;1.50;;
12429;SDS011;6279;42.192;24.326;2023-04-30T15:31:20;1.63;;;1.40;;
12429;SDS011;6279;42.192;24.326;2023-04-30T15:33:45;1.47;;;1.37;;
12429;SDS011;6279;42.192;24.326;2023-04-30T15:36:11;3.87;;;1.87;;
12429;SDS011;6279;42.192;24.326;2023-04-30T15:38:36;2.00;;;1.50;;
12429;SDS011;6279;42.192;24.326;2023-04-30T15:41:02;2.57;;;1.60;;
12429;SDS011;6279;42.192;24.326;2023-04-30T15:43:27;2.03;;;1.90;;
12429;SDS011;6279;42.192;24.326;2023-04-30T15:45:54;1.80;;;1.70;;
12429;SDS011;6279;42.192;24.326;2023-04-30T15:48:20;2.80;;;2.00;;
12429;SDS011;6279;42.192;24.326;2023-04-30T15:50:45;2.40;;;2.07;;
12429;SDS011;6279;42.192;24.326;2023-04-30T15:53:11;3.27;;;1.70;;
12429;SDS011;6279;42.192;24.326;2023-04-30T15:55:36;2.43;;;1.80;;
12429;SDS011;6279;42.192;24.326;2023-04-30T15:58:02;2.13;;;1.70;;
12429;SDS011;6279;42.192;24.326;2023-04-30T16:00:28;3.90;;;2.60;;
12429;SDS011;6279;42.192;24.326;2023-04-30T16:02:54;4.10;;;2.40;;
12429;SDS011;6279;42.192;24.326;2023-04-30T16:05:19;4.90;;;3.60;;
12429;SDS011;6279;42.192;24.326;2023-04-30T16:07:45;3.07;;;2.40;;
12429;SDS011;6279;42.192;24.326;2023-04-30T16:10:10;3.50;;;2.57;;
12429;SDS011;6279;42.192;24.326;2023-04-30T16:12:36;2.33;;;2.10;;
12429;SDS011;6279;42.192;24.326;2023-04-30T16:15:01;2.97;;;2.10;;
12429;SDS011;6279;42.192;24.326;2023-04-30T16:17:29;2.80;;;1.93;;
12429;SDS011;6279;42.192;24.326;2023-04-30T16:19:56;3.03;;;1.93;;
12429;SDS011;6279;42.192;24.326;2023-04-30T16:22:22;2.00;;;1.80;;
12429;SDS011;6279;42.192;24.326;2023-04-30T16:24:48;1.93;;;1.63;;
12429;SDS011;6279;42.192;24.326;2023-04-30T16:27:13;2.77;;;1.70;;
12429;SDS011;6279;42.192;24.326;2023-04-30T16:29:39;5.70;;;1.80;;
12429;SDS011;6279;42.192;24.326;2023-04-30T16:32:04;2.17;;;1.90;;
12429;SDS011;6279;42.192;24.326;2023-04-30T16:34:30;3.23;;;1.77;;
12429;SDS011;6279;42.192;24.326;2023-04-30T16:36:58;1.70;;;1.60;;
12429;SDS011;6279;42.192;24.326;2023-04-30T16:39:26;2.97;;;2.20;;
12429;SDS011;6279;42.192;24.326;2023-04-30T16:41:51;3.20;;;1.97;;
12429;SDS011;6279;42.192;24.326;2023-04-30T16:44:17;3.43;;;2.47;;
12429;SDS011;6279;42.192;24.326;2023-04-30T16:46:42;2.73;;;2.40;;
12429;SDS011;6279;42.192;24.326;2023-04-30T16:49:07;3.63;;;2.33;;
12429;SDS011;6279;42.192;24.326;2023-04-30T16:51:33;3.40;;;3.10;;
12429;SDS011;6279;42.192;24.326;2023-04-30T16:53:58;6.13;;;3.47;;
12429;SDS011;6279;42.192;24.326;2023-04-30T16:56:24;3.63;;;2.80;;
12429;SDS011;6279;42.192;24.326;2023-04-30T16:58:50;9.37;;;5.70;;
12429;SDS011;6279;42.192;24.326;2023-04-30T17:01:15;4.40;;;3.80;;
12429;SDS011;6279;42.192;24.326;2023-04-30T17:03:40;3.37;;;2.60;;
12429;SDS011;6279;42.192;24.326;2023-04-30T17:06:06;3.73;;;2.70;;
12429;SDS011;6279;42.192;24.326;2023-04-30T17:08:32;4.97;;;2.80;;
12429;SDS011;6279;42.192;24.326;2023-04-30T17:10:57;3.33;;;2.70;;
12429;SDS011;6279;42.192;24.326;2023-04-30T17:13:22;3.83;;;2.43;;
12429;SDS011;6279;42.192;24.326;2023-04-30T17:15:48;5.33;;;2.50;;
12429;SDS011;6279;42.192;24.326;2023-04-30T17:18:13;5.33;;;2.57;;
12429;SDS011;6279;42.192;24.326;2023-04-30T17:20:39;2.40;;;2.20;;
12429;SDS011;6279;42.192;24.326;2023-04-30T17:23:05;6.40;;;2.67;;
12429;SDS011;6279;42.192;24.326;2023-04-30T17:25:30;3.70;;;2.50;;
12429;SDS011;6279;42.192;24.326;2023-04-30T17:27:56;2.63;;;2.03;;
12429;SDS011;6279;42.192;24.326;2023-04-30T17:30:25;2.93;;;2.30;;
12429;SDS011;6279;42.192;24.326;2023-04-30T17:32:51;3.43;;;2.70;;
12429;SDS011;6279;42.192;24.326;2023-04-30T17:35:16;6.40;;;3.37;;
12429;SDS011;6279;42.192;24.326;2023-04-30T17:37:42;5.33;;;3.70;;
12429;SDS011;6279;42.192;24.326;2023-04-30T17:40:08;3.67;;;2.90;;
12429;SDS011;6279;42.192;24.326;2023-04-30T17:42:34;3.27;;;2.97;;
12429;SDS011;6279;42.192;24.326;2023-04-30T17:45:02;3.23;;;2.43;;
12429;SDS011;6279;42.192;24.326;2023-04-30T17:47:27;2.80;;;2.60;;
12429;SDS011;6279;42.192;24.326;2023-04-30T17:49:53;5.00;;;3.67;;
12429;SDS011;6279;42.192;24.326;2023-04-30T17:52:18;3.83;;;3.37;;
12429;SDS011;6279;42.192;24.326;2023-04-30T17:54:44;4.50;;;3.27;;
12429;SDS011;6279;42.192;24.326;2023-04-30T17:57:09;4.57;;;3.40;;
12429;SDS011;6279;42.192;24.326;2023-04-30T17:59:37;4.37;;;2.67;;
12429;SDS011;6279;42.192;24.326;2023-04-30T18:02:06;7.30;;;3.53;;
12429;SDS011;6279;42.192;24.326;2023-04-30T18:04:32;4.27;;;3.03;;
12429;SDS011;6279;42.192;24.326;2023-04-30T18:06:58;3.53;;;2.60;;
12429;SDS011;6279;42.192;24.326;2023-04-30T18:09:23;2.90;;;2.60;;
12429;SDS011;6279;42.192;24.326;2023-04-30T18:11:49;2.47;;;2.27;;
12429;SDS011;6279;42.192;24.326;2023-04-30T18:14:15;3.37;;;2.70;;
12429;SDS011;6279;42.192;24.326;2023-04-30T18:16:40;4.30;;;3.50;;
12429;SDS011;6279;42.192;24.326;2023-04-30T18:19:06;10.70;;;4.77;;
12429;SDS011;6279;42.192;24.326;2023-04-30T18:21:31;2.70;;;2.30;;
12429;SDS011;6279;42.192;24.326;2023-04-30T18:23:57;3.13;;;2.20;;
12429;SDS011;6279;42.192;24.326;2023-04-30T18:26:23;3.73;;;2.30;;
12429;SDS011;6279;42.192;24.326;2023-04-30T18:28:49;2.70;;;2.30;;
12429;SDS011;6279;42.192;24.326;2023-04-30T18:31:18;3.47;;;2.43;;
12429;SDS011;6279;42.192;24.326;2023-04-30T18:33:44;2.87;;;2.37;;
12429;SDS011;6279;42.192;24.326;2023-04-30T18:36:09;4.40;;;2.90;;
12429;SDS011;6279;42.192;24.326;2023-04-30T18:38:35;3.53;;;2.80;;
12429;SDS011;6279;42.192;24.326;2023-04-30T18:41:04;3.60;;;2.83;;
12429;SDS011;6279;42.192;24.326;2023-04-30T18:43:29;3.93;;;3.20;;
12429;SDS011;6279;42.192;24.326;2023-04-30T18:45:55;4.20;;;3.07;;
12429;SDS011;6279;42.192;24.326;2023-04-30T18:48:21;3.77;;;2.93;;
12429;SDS011;6279;42.192;24.326;2023-04-30T18:50:47;3.33;;;2.83;;
12429;SDS011;6279;42.192;24.326;2023-04-30T18:53:13;3.33;;;2.73;;
12429;SDS011;6279;42.192;24.326;2023-04-30T18:55:38;5.13;;;2.80;;
12429;SDS011;6279;42.192;24.326;2023-04-30T18:58:04;4.00;;;3.10;;
12429;SDS011;6279;42.192;24.326;2023-04-30T19:00:29;3.70;;;2.60;;
12429;SDS011;6279;42.192;24.326;2023-04-30T19:02:55;3.57;;;2.83;;
12429;SDS011;6279;42.192;24.326;2023-04-30T19:05:20;4.23;;;3.10;;
12429;SDS011;6279;42.192;24.326;2023-04-30T19:07:45;5.60;;;3.00;;
12429;SDS011;6279;42.192;24.326;2023-04-30T19:10:11;4.80;;;2.63;;
12429;SDS011;6279;42.192;24.326;2023-04-30T19:12:37;3.57;;;2.90;;
12429;SDS011;6279;42.192;24.326;2023-04-30T19:15:02;4.10;;;2.20;;
12429;SDS011;6279;42.192;24.326;2023-04-30T19:17:32;5.90;;;2.50;;
12429;SDS011;6279;42.192;24.326;2023-04-30T19:20:03;4.27;;;3.17;;
12429;SDS011;6279;42.192;24.326;2023-04-30T19:22:29;2.90;;;2.60;;
12429;SDS011;6279;42.192;24.326;2023-04-30T19:24:55;4.47;;;3.27;;
12429;SDS011;6279;42.192;24.326;2023-04-30T19:27:20;3.93;;;3.27;;
12429;SDS011;6279;42.192;24.326;2023-04-30T19:29:45;6.50;;;3.77;;
12429;SDS011;6279;42.192;24.326;2023-04-30T19:32:13;3.87;;;2.80;;
12429;SDS011;6279;42.192;24.326;2023-04-30T19:34:38;3.50;;;2.60;;
12429;SDS011;6279;42.192;24.326;2023-04-30T19:37:06;3.80;;;3.00;;
12429;SDS011;6279;42.192;24.326;2023-04-30T19:39:32;6.47;;;4.50;;
12429;SDS011;6279;42.192;24.326;2023-04-30T19:41:58;3.77;;;3.20;;
12429;SDS011;6279;42.192;24.326;2023-04-30T19:44:24;6.27;;;4.30;;
12429;SDS011;6279;42.192;24.326;2023-04-30T19:46:50;5.30;;;4.17;;
12429;SDS011;6279;42.192;24.326;2023-04-30T19:49:17;5.43;;;2.90;;
12429;SDS011;6279;42.192;24.326;2023-04-30T19:51:43;3.70;;;3.30;;
12429;SDS011;6279;42.192;24.326;2023-04-30T19:54:08;4.20;;;3.23;;
12429;SDS011;6279;42.192;24.326;2023-04-30T19:56:38;3.60;;;3.03;;
12429;SDS011;6279;42.192;24.326;2023-04-30T19:59:10;5.63;;;3.67;;
12429;SDS011;6279;42.192;24.326;2023-04-30T20:01:36;5.97;;;3.73;;
12429;SDS011;6279;42.192;24.326;2023-04-30T20:04:02;4.53;;;3.67;;
12429;SDS011;6279;42.192;24.326;2023-04-30T20:06:28;5.33;;;3.60;;
12429;SDS011;6279;42.192;24.326;2023-04-30T20:08:53;4.47;;;3.30;;
12429;SDS011;6279;42.192;24.326;2023-04-30T20:11:22;5.83;;;3.80;;
12429;SDS011;6279;42.192;24.326;2023-04-30T20:13:47;7.60;;;5.30;;
12429;SDS011;6279;42.192;24.326;2023-04-30T20:16:12;5.83;;;4.40;;
12429;SDS011;6279;42.192;24.326;2023-04-30T20:18:42;4.67;;;3.90;;
12429;SDS011;6279;42.192;24.326;2023-04-30T20:21:08;5.17;;;3.83;;
12429;SDS011;6279;42.192;24.326;2023-04-30T20:23:34;5.10;;;3.77;;
12429;SDS011;6279;42.192;24.326;2023-04-30T20:26:01;4.70;;;4.07;;
12429;SDS011;6279;42.192;24.326;2023-04-30T20:28:27;7.10;;;5.00;;
12429;SDS011;6279;42.192;24.326;2023-04-30T20:30:52;5.50;;;4.57;;
12429;SDS011;6279;42.192;24.326;2023-04-30T20:33:17;5.07;;;4.10;;
12429;SDS011;6279;42.192;24.326;2023-04-30T20:35:43;6.40;;;3.70;;
12429;SDS011;6279;42.192;24.326;2023-04-30T20:38:12;5.60;;;4.83;;
12429;SDS011;6279;42.192;24.326;2023-04-30T20:40:38;5.53;;;4.67;;
12429;SDS011;6279;42.192;24.326;2023-04-30T20:43:07;4.63;;;4.00;;
12429;SDS011;6279;42.192;24.326;2023-04-30T20:45:37;3.70;;;3.27;;
12429;SDS011;6279;42.192;24.326;2023-04-30T20:48:04;4.17;;;3.07;;
12429;SDS011;6279;42.192;24.326;2023-04-30T20:50:30;6.27;;;4.47;;
12429;SDS011;6279;42.192;24.326;2023-04-30T20:52:56;3.80;;;3.00;;
12429;SDS011;6279;42.192;24.326;2023-04-30T20:55:21;3.30;;;3.00;;
12429;SDS011;6279;42.192;24.326;2023-04-30T20:57:47;4.47;;;3.50;;
12429;SDS011;6279;42.192;24.326;2023-04-30T21:00:16;4.60;;;3.10;;
12429;SDS011;6279;42.192;24.326;2023-04-30T21:02:42;6.47;;;3.37;;
12429;SDS011;6279;42.192;24.326;2023-04-30T21:05:07;5.73;;;3.60;;
12429;SDS011;6279;42.192;24.326;2023-04-30T21:07:34;3.37;;;3.07;;
12429;SDS011;6279;42.192;24.326;2023-04-30T21:10:00;5.57;;;2.97;;
12429;SDS011;6279;42.192;24.326;2023-04-30T21:12:32;3.60;;;2.77;;
12429;SDS011;6279;42.192;24.326;2023-04-30T21:14:58;3.67;;;2.90;;
12429;SDS011;6279;42.192;24.326;2023-04-30T21:17:24;3.30;;;2.90;;
12429;SDS011;6279;42.192;24.326;2023-04-30T21:19:50;3.70;;;3.00;;
12429;SDS011;6279;42.192;24.326;2023-04-30T21:22:15;3.13;;;2.80;;
12429;SDS011;6279;42.192;24.326;2023-04-30T21:24:41;3.70;;;2.90;;
12429;SDS011;6279;42.192;24.326;2023-04-30T21:27:07;5.87;;;4.10;;
12429;SDS011;6279;42.192;24.326;2023-04-30T21:29:35;5.47;;;3.80;;
12429;SDS011;6279;42.192;24.326;2023-04-30T21:32:01;3.83;;;3.30;;
12429;SDS011;6279;42.192;24.326;2023-04-30T21:34:32;3.53;;;3.20;;
12429;SDS011;6279;42.192;24.326;2023-04-30T21:36:58;4.97;;;3.77;;
12429;SDS011;6279;42.192;24.326;2023-04-30T21:39:24;7.27;;;3.77;;
12429;SDS011;6279;42.192;24.326;2023-04-30T21:41:50;5.40;;;4.27;;
12429;SDS011;6279;42.192;24.326;2023-04-30T21:44:15;5.27;;;4.27;;
12429;SDS011;6279;42.192;24.326;2023-04-30T21:46:41;5.10;;;4.37;;
12429;SDS011;6279;42.192;24.326;2023-04-30T21:49:06;5.20;;;4.37;;
12429;SDS011;6279;42.192;24.326;2023-04-30T21:51:32;6.17;;;4.10;;
12429;SDS011;6279;42.192;24.326;2023-04-30T21:54:00;7.43;;;5.50;;
12429;SDS011;6279;42.192;24.326;2023-04-30T21:56:25;8.13;;;6.67;;
12429;SDS011;6279;42.192;24.326;2023-04-30T21:58:51;9.60;;;6.67;;
12429;SDS011;6279;42.192;24.326;2023-04-30T22:01:16;8.40;;;6.27;;
12429;SDS011;6279;42.192;24.326;2023-04-30T22:03:42;11.10;;;7.53;;
12429;SDS011;6279;42.192;24.326;2023-04-30T22:06:08;7.70;;;5.70;;
12429;SDS011;6279;42.192;24.326;2023-04-30T22:08:33;7.50;;;6.00;;
12429;SDS011;6279;42.192;24.326;2023-04-30T22:10:59;9.00;;;5.80;;
12429;SDS011;6279;42.192;24.326;2023-04-30T22:13:25;8.03;;;5.17;;
12429;SDS011;6279;42.192;24.326;2023-04-30T22:15:51;5.27;;;4.63;;
12429;SDS011;6279;42.192;24.326;2023-04-30T22:18:17;5.60;;;4.73;;
12429;SDS011;6279;42.192;24.326;2023-04-30T22:20:43;7.67;;;5.43;;
12429;SDS011;6279;42.192;24.326;2023-04-30T22:23:08;5.23;;;4.20;;
12429;SDS011;6279;42.192;24.326;2023-04-30T22:25:34;10.53;;;5.10;;
12429;SDS011;6279;42.192;24.326;2023-04-30T22:27:59;6.57;;;4.60;;
12429;SDS011;6279;42.192;24.326;2023-04-30T22:30:25;6.80;;;4.70;;
12429;SDS011;6279;42.192;24.326;2023-04-30T22:32:54;6.23;;;4.60;;
12429;SDS011;6279;42.192;24.326;2023-04-30T22:35:20;6.20;;;4.23;;
12429;SDS011;6279;42.192;24.326;2023-04-30T22:37:47;6.27;;;5.07;;
12429;SDS011;6279;42.192;24.326;2023-04-30T22:40:12;6.73;;;4.93;;
12429;SDS011;6279;42.192;24.326;2023-04-30T22:42:38;7.30;;;4.20;;
12429;SDS011;6279;42.192;24.326;2023-04-30T22:45:05;4.97;;;4.20;;
12429;SDS011;6279;42.192;24.326;2023-04-30T22:47:31;5.17;;;4.57;;
12429;SDS011;6279;42.192;24.326;2023-04-30T22:49:57;5.43;;;4.67;;
12429;SDS011;6279;42.192;24.326;2023-04-30T22:52:23;4.83;;;4.10;;
12429;SDS011;6279;42.192;24.326;2023-04-30T22:54:49;5.57;;;4.43;;
12429;SDS011;6279;42.192;24.326;2023-04-30T22:57:15;6.57;;;4.70;;
12429;SDS011;6279;42.192;24.326;2023-04-30T22:59:40;4.70;;;4.10;;
12429;SDS011;6279;42.192;24.326;2023-04-30T23:02:06;5.07;;;4.47;;
12429;SDS011;6279;42.192;24.326;2023-04-30T23:04:31;5.60;;;4.87;;
12429;SDS011;6279;42.192;24.326;2023-04-30T23:06:57;7.30;;;5.53;;
12429;SDS011;6279;42.192;24.326;2023-04-30T23:09:23;10.67;;;6.30;;
12429;SDS011;6279;42.192;24.326;2023-04-30T23:11:49;6.60;;;5.13;;
12429;SDS011;6279;42.192;24.326;2023-04-30T23:14:15;5.07;;;4.57;;
12429;SDS011;6279;42.192;24.326;2023-04-30T23:16:41;6.43;;;3.73;;
12429;SDS011;6279;42.192;24.326;2023-04-30T23:19:07;4.33;;;3.47;;
12429;SDS011;6279;42.192;24.326;2023-04-30T23:21:33;5.23;;;4.73;;
12429;SDS011;6279;42.192;24.326;2023-04-30T23:23:58;6.17;;;4.57;;
12429;SDS011;6279;42.192;24.326;2023-04-30T23:26:24;7.63;;;4.67;;
12429;SDS011;6279;42.192;24.326;2023-04-30T23:28:49;5.90;;;4.33;;
12429;SDS011;6279;42.192;24.326;2023-04-30T23:31:15;4.27;;;3.80;;
12429;SDS011;6279;42.192;24.326;2023-04-30T23:33:42;4.73;;;4.23;;
12429;SDS011;6279;42.192;24.326;2023-04-30T23:36:10;5.67;;;4.23;;
12429;SDS011;6279;42.192;24.326;2023-04-30T23:38:36;5.27;;;4.40;;
12429;SDS011;6279;42.192;24.326;2023-04-30T23:41:01;4.53;;;4.13;;
12429;SDS011;6279;42.192;24.326;2023-04-30T23:43:27;5.97;;;4.10;;
12429;SDS011;6279;42.192;24.326;2023-04-30T23:45:53;5.40;;;4.23;;
12429;SDS011;6279;42.192;24.326;2023-04-30T23:48:20;4.73;;;4.30;;
12429;SDS011;6279;42.192;24.326;2023-04-30T23:50:45;6.63;;;4.13;;
12429;SDS011;6279;42.192;24.326;2023-04-30T23:53:11;7.33;;;5.83;;
12429;SDS011;6279;42.192;24.326;2023-04-30T23:55:40;4.70;;;4.00;;
12429;SDS011;6279;42.192;24.326;2023-04-30T23:58:06;4.87;;;4.20;;
